Bert Mooney Airport Butte US
ICAO: KBTM
IATA: BTM
Category: Medium
Scheduled Services: Yes

Elevation: 5550 ft
TransAlt. 18000 ft.

Airport Communications:
ASOS:135.175
SALT LAKE CITY CNTR:132.4
GREAT FALLS RDO:122.2
CTAF/UNICOM:123

KBTM Zoom In..

Runways:

(A) RW 12 length 5100 ft width 75 ft
---- / hdg 113

(B) RW 15 length 9001 ft width 150 ft
ILS 110.90 / hdg 151

(C) RW 30 length 5100 ft width 75 ft
---- / hdg 293

(D) RW 33 length 9001 ft width 150 ft
---- / hdg 331

Location; KBTM
Day. 25 / Time. 12.53 Zulu
* Altimeter: 29.79
* Temperature: -03° c. -26.6°f.
* Wind from: 010° Speed 06 kn.
Dewpoint: -08° c.
Visibility: 10 Statute Miles.
Clouds: Broken 6500 ft.
Clouds: Broken 1000 ft.

KBTM 251253Z AUTO 01006KT 10SM BKN065 BKN100 M03/M08 A2979 RMK AO2 SLP116 T10281078

Going to: --> -->


Wind From 010°
Speed 06 kn.

 
 
jpsmedia worldairports.se 2020   terms of use